Terminal Aerodrome Forecast
Issued by NWS Albany, NY

Home | Current Version | Previous Version | Text Only | Print | Product List | Glossary On
Versions: 1 2 3 4 5 6 7 8 9 10 11 12 13 14
000
FTUS41 KALY 211700 RRA
TAFALB
TAF
KALB 211747Z 2118/2218 18012G20KT P6SM SCT030 BKN250
     FM212200 19010KT P6SM SCT040 BKN100
     FM220000 23006KT P6SM VCSH BKN040 BKN080
     FM220400 26010KT P6SM SCT025 BKN050
     FM220700 27010KT P6SM BKN025
     FM221300 29015G25KT P6SM SCT025 BKN040
     FM221600 29018G28KT P6SM SCT035 BKN050=

USA.gov is the U.S. government's official web portal to all federal, state and local government web resources and services.